Time;durP1;ratioP1;P1;durP2;ratioP2;P2;SDS_P1;SDS_P2;PMS_P1;PMS_P2;Temp;Humidity;BMP_temperature;BMP_pressure;BME280_temperature;BME280_humidity;BME280_pressure;Samples;Min_cycle;Max_cycle;Signal;HPM_P1;HPM_P2
2023/04/03 00:00:57;;;;;;;9.00;7.50;;;;;;;7.78;94.13;99005.95;107854;1256;73610;-72
2023/04/03 00:03:45;;;;;;;9.60;7.20;;;;;;;7.72;94.36;99004.81;108374;1253;70543;-75
2023/04/03 00:06:15;;;;;;;9.00;7.70;;;;;;;7.72;93.97;99004.31;107867;1256;74402;-73
2023/04/03 00:08:52;;;;;;;8.50;7.40;;;;;;;7.68;93.82;99003.33;107573;1250;60455;-74
2023/04/03 00:11:20;;;;;;;10.00;7.70;;;;;;;7.68;93.73;98999.99;107489;1251;61059;-73
2023/04/03 00:13:47;;;;;;;7.90;7.10;;;;;;;7.62;93.97;99008.36;107228;1253;74825;-74
2023/04/03 00:16:20;;;;;;;8.80;7.20;;;;;;;7.58;93.92;99004.41;107127;1251;71308;-73
2023/04/03 00:18:48;;;;;;;8.40;6.70;;;;;;;7.59;93.52;99007.47;106788;1253;71647;-72
2023/04/03 00:21:15;;;;;;;9.70;7.30;;;;;;;7.50;93.58;99010.95;106757;1256;60425;-73
2023/04/03 00:23:42;;;;;;;8.80;6.10;;;;;;;7.42;93.68;99014.95;106815;1256;61132;-74
2023/04/03 00:26:09;;;;;;;8.20;6.60;;;;;;;7.43;94.21;99019.08;106854;1257;74005;-73
2023/04/03 00:28:38;;;;;;;9.70;7.50;;;;;;;7.42;94.44;99016.73;106886;1256;71460;-74
2023/04/03 00:31:05;;;;;;;8.10;6.60;;;;;;;7.46;94.67;99016.10;106565;1256;71380;-74
2023/04/03 00:33:32;;;;;;;8.90;7.00;;;;;;;7.49;95.20;99006.42;106975;1251;61190;-74
2023/04/03 00:36:10;;;;;;;9.70;6.60;;;;;;;7.53;95.12;99013.77;108545;1251;59295;-74
2023/04/03 00:38:38;;;;;;;7.30;6.20;;;;;;;7.52;95.17;99011.20;106618;1255;72928;-71
2023/04/03 00:41:05;;;;;;;9.30;6.70;;;;;;;7.53;94.89;99011.30;106365;1257;69886;-73
2023/04/03 00:43:32;;;;;;;9.20;7.20;;;;;;;7.53;94.90;99007.27;106465;1252;72112;-72
2023/04/03 00:45:59;;;;;;;9.60;8.10;;;;;;;7.46;94.60;99005.30;106326;1256;61384;-72
2023/04/03 00:48:45;;;;;;;8.50;7.60;;;;;;;7.44;94.49;99002.52;106435;1256;60397;-70
2023/04/03 00:51:15;;;;;;;8.50;7.60;;;;;;;7.44;94.90;99002.92;106388;1256;72976;-70
2023/04/03 00:53:56;;;;;;;9.20;8.00;;;;;;;7.36;95.02;99003.09;106491;1253;70085;-73
2023/04/03 00:56:25;;;;;;;8.50;7.60;;;;;;;7.36;95.21;99002.52;106486;1251;73514;-73
2023/04/03 00:59:13;;;;;;;9.80;7.50;;;;;;;7.41;95.22;99002.39;106303;1251;60540;-72
2023/04/03 01:01:40;;;;;;;7.90;7.00;;;;;;;7.35;95.22;99004.08;106503;1257;61499;-70
2023/04/03 01:04:33;;;;;;;9.80;7.50;;;;;;;7.34;95.16;99002.79;107096;1251;74166;-69
2023/04/03 01:07:03;;;;;;;;;;;;;;;7.34;95.22;99004.02;109502;1254;70265;-72
2023/04/03 01:09:31;;;;;;;8.70;6.90;;;;;;;7.33;95.71;99002.36;109250;1253;72732;-73
2023/04/03 01:12:23;;;;;;;8.80;7.90;;;;;;;7.40;96.00;99006.56;109320;1251;58195;-71
2023/04/03 01:14:54;;;;;;;9.20;7.30;;;;;;;7.41;96.42;98998.52;109240;1251;60540;-72
2023/04/03 01:17:35;;;;;;;8.80;6.40;;;;;;;7.46;96.42;99001.63;109098;1251;72884;-70
2023/04/03 01:20:02;;;;;;;8.60;7.40;;;;;;;7.49;95.44;99000.41;109074;1256;70222;-72
2023/04/03 01:22:32;;;;;;;9.70;6.50;;;;;;;7.47;96.04;98996.38;109125;1251;71448;-70
2023/04/03 01:25:02;;;;;;;8.30;6.30;;;;;;;7.51;96.07;99000.73;109216;1251;59147;-71
2023/04/03 01:27:29;;;;;;;7.90;6.90;;;;;;;7.57;96.33;98999.81;109136;1251;59996;-70
2023/04/03 01:29:56;;;;;;;8.20;7.00;;;;;;;7.55;96.73;99000.67;109064;1251;73712;-71
2023/04/03 01:32:24;;;;;;;7.90;6.70;;;;;;;7.56;96.46;99003.77;108989;1251;70299;-71
2023/04/03 01:34:51;;;;;;;8.70;6.30;;;;;;;7.57;96.38;98999.70;109351;1251;71594;-70
2023/04/03 01:37:18;;;;;;;8.80;6.90;;;;;;;7.54;96.55;99003.45;109290;1250;59674;-71
2023/04/03 01:39:45;;;;;;;8.30;6.70;;;;;;;7.52;96.65;99004.17;109562;1251;60004;-71
2023/04/03 01:42:12;;;;;;;9.10;6.80;;;;;;;7.58;96.33;99002.45;106486;1252;71820;-70
2023/04/03 01:44:41;;;;;;;8.00;6.50;;;;;;;7.55;96.48;99002.48;107627;1251;71232;-68
2023/04/03 01:47:08;;;;;;;9.70;7.00;;;;;;;7.54;96.92;99002.16;108804;1251;71558;-71
2023/04/03 01:49:35;;;;;;;7.50;6.70;;;;;;;7.56;97.21;99004.15;109364;1251;60323;-68
2023/04/03 01:52:02;;;;;;;10.00;6.60;;;;;;;7.60;97.08;99005.63;109419;1251;60002;-70
2023/04/03 01:54:29;;;;;;;7.30;6.50;;;;;;;7.62;96.94;99003.43;109505;1251;72186;-71
2023/04/03 01:56:56;;;;;;;7.30;6.20;;;;;;;7.62;96.63;98999.77;109411;1254;70259;-71
2023/04/03 01:59:23;;;;;;;10.80;7.90;;;;;;;7.60;96.76;99002.05;109507;1251;70843;-71
2023/04/03 02:01:50;;;;;;;8.60;7.20;;;;;;;7.60;96.20;99001.15;109500;1254;59485;-70
2023/04/03 02:04:17;;;;;;;7.80;6.10;;;;;;;7.58;96.04;99000.23;108865;1251;60034;-71
2023/04/03 02:06:44;;;;;;;7.80;6.80;;;;;;;7.57;95.90;99000.08;107210;1251;73804;-71
2023/04/03 02:09:11;;;;;;;7.10;6.20;;;;;;;7.56;96.15;98997.23;107246;1256;70541;-71
2023/04/03 02:11:38;;;;;;;7.70;6.40;;;;;;;7.57;96.41;99001.65;108657;1257;71621;-72
2023/04/03 02:14:06;;;;;;;10.40;8.00;;;;;;;7.62;96.06;99002.08;109120;1251;58922;-72
2023/04/03 02:16:40;;;;;;;;;;;;;;;7.63;96.16;99004.02;109353;1251;58153;-72
2023/04/03 02:19:07;;;;;;;10.30;7.50;;;;;;;7.67;96.26;99003.20;109404;1251;71562;-71
2023/04/03 02:21:34;;;;;;;11.90;8.80;;;;;;;7.75;96.28;99002.92;109286;1255;68338;-70
2023/04/03 02:24:01;;;;;;;10.00;8.50;;;;;;;7.70;95.87;99006.39;109198;1254;70663;-70
2023/04/03 02:26:28;;;;;;;11.80;8.50;;;;;;;7.71;96.28;99006.04;109340;1251;61750;-71
2023/04/03 02:28:56;;;;;;;12.80;9.70;;;;;;;7.78;96.55;99008.73;109369;1250;60153;-71
2023/04/03 02:31:23;;;;;;;11.20;8.70;;;;;;;7.80;96.60;99008.20;109529;1250;73834;-71
2023/04/03 02:33:51;;;;;;;10.50;8.40;;;;;;;7.82;95.98;99004.07;108978;1251;70207;-70
2023/04/03 02:36:18;;;;;;;12.80;9.00;;;;;;;7.90;95.48;99007.29;106480;1257;72479;-69
2023/04/03 02:38:49;;;;;;;11.10;10.00;;;;;;;7.88;95.65;99006.27;105973;1257;60459;-72
2023/04/03 02:41:16;;;;;;;12.40;10.30;;;;;;;7.84;95.32;99010.05;105837;1256;60380;-69
2023/04/03 02:43:43;;;;;;;11.00;9.80;;;;;;;7.83;94.67;99010.38;105752;1251;74805;-70
2023/04/03 02:46:10;;;;;;;11.90;10.20;;;;;;;7.75;95.27;99007.68;105625;1254;70393;-71
2023/04/03 02:48:38;;;;;;;12.00;9.40;;;;;;;7.73;95.53;99009.37;105735;1257;73498;-71
2023/04/03 02:51:05;;;;;;;10.40;9.30;;;;;;;7.73;95.57;99006.53;105903;1252;60574;-71
2023/04/03 02:53:32;;;;;;;10.50;9.40;;;;;;;7.66;95.43;99009.84;105906;1251;60395;-70
2023/04/03 02:56:06;;;;;;;10.40;8.40;;;;;;;7.63;95.16;99008.28;106014;1251;74750;-72
2023/04/03 02:58:33;;;;;;;9.10;7.80;;;;;;;7.64;95.05;99008.33;105818;1251;70501;-69
2023/04/03 03:01:04;;;;;;;9.20;7.40;;;;;;;7.62;95.30;99009.96;106052;1257;72406;-73
2023/04/03 03:03:32;;;;;;;10.80;8.60;;;;;;;7.63;95.30;99009.09;105994;1251;61565;-71
2023/04/03 03:06:10;;;;;;;11.50;9.00;;;;;;;7.70;95.62;99012.34;105967;1257;60444;-69
2023/04/03 03:08:37;;;;;;;9.70;8.10;;;;;;;7.67;95.64;99010.86;106065;1257;74152;-71
2023/04/03 03:11:05;;;;;;;13.60;9.60;;;;;;;7.67;95.63;99015.88;106059;1251;70015;-71
2023/04/03 03:13:32;;;;;;;11.10;9.00;;;;;;;7.70;95.41;99018.42;106297;1254;72735;-70
2023/04/03 03:16:00;;;;;;;11.90;9.70;;;;;;;7.70;95.44;99015.85;106099;1251;61328;-71
2023/04/03 03:18:27;;;;;;;11.30;8.60;;;;;;;7.69;95.08;99015.06;106071;1257;61391;-72
2023/04/03 03:20:58;;;;;;;12.10;9.10;;;;;;;7.67;94.68;99014.33;105985;1251;74917;-71
2023/04/03 03:23:26;;;;;;;10.30;8.40;;;;;;;7.60;94.57;99016.33;106067;1251;70173;-71
2023/04/03 03:25:57;;;;;;;11.80;8.00;;;;;;;7.56;94.47;99013.61;106121;1251;73627;-74
2023/04/03 03:28:24;;;;;;;10.20;8.70;;;;;;;7.56;94.70;99013.83;106136;1251;61074;-71
2023/04/03 03:30:52;;;;;;;11.90;8.00;;;;;;;7.51;94.90;99012.95;106163;1256;60373;-72
2023/04/03 03:33:19;;;;;;;11.30;8.60;;;;;;;7.52;95.06;99015.75;106030;1256;73983;-72
2023/04/03 03:35:46;;;;;;;13.40;9.20;;;;;;;7.53;95.23;99014.42;105860;1257;70079;-72
2023/04/03 03:38:13;;;;;;;11.60;8.40;;;;;;;7.55;95.43;99014.05;106099;1254;72100;-71
2023/04/03 03:40:40;;;;;;;9.70;8.70;;;;;;;7.56;95.50;99013.13;105980;1254;60729;-72
2023/04/03 03:43:07;;;;;;;15.20;9.80;;;;;;;7.57;95.46;99013.46;105950;1257;60401;-71
2023/04/03 03:45:35;;;;;;;11.30;9.70;;;;;;;7.54;95.72;99017.21;105814;1250;74147;-72
2023/04/03 03:48:03;;;;;;;10.70;9.50;;;;;;;7.52;95.53;99016.55;105965;1256;70562;-72
2023/04/03 03:50:32;;;;;;;13.90;9.90;;;;;;;7.55;95.52;99017.30;105844;1251;226209;-72
2023/04/03 03:55:42;;;;;;;14.30;11.40;;;;;;;7.52;95.93;99015.44;102614;1302;600420;-71
2023/04/03 03:58:10;;;;;;;12.70;11.30;;;;;;;7.56;95.57;99020.52;105045;1274;62686;-71
2023/04/03 04:00:39;;;;;;;15.70;12.30;;;;;;;7.57;95.78;99018.31;105038;1267;60372;-73
2023/04/03 04:03:08;;;;;;;16.60;12.50;;;;;;;7.59;95.72;99021.25;104942;1270;71492;-71
2023/04/03 04:05:37;;;;;;;16.50;12.90;;;;;;;7.59;95.73;99020.49;105129;1272;71408;-71
2023/04/03 04:08:13;;;;;;;14.70;11.60;;;;;;;7.56;95.81;99023.63;104768;1267;355161;-73
2023/04/03 04:10:44;;;;;;;16.40;12.30;;;;;;;7.58;95.67;99024.33;105086;1269;61152;-73
2023/04/03 04:13:14;;;;;;;16.40;12.60;;;;;;;7.57;95.96;99025.52;105102;1264;61323;-73
2023/04/03 04:15:43;;;;;;;14.80;11.90;;;;;;;7.58;96.02;99029.38;105040;1266;70095;-73
2023/04/03 04:18:11;;;;;;;15.60;11.30;;;;;;;7.62;95.83;99031.79;105092;1271;69509;-74
2023/04/03 04:20:41;;;;;;;12.70;10.00;;;;;;;7.59;95.37;99028.29;105087;1267;73400;-74
2023/04/03 04:23:12;;;;;;;13.70;11.50;;;;;;;7.57;95.18;99029.91;105142;1265;60415;-72
2023/04/03 04:25:41;;;;;;;12.20;9.10;;;;;;;7.53;95.41;99034.56;105083;1270;59902;-74
2023/04/03 04:28:09;;;;;;;10.50;9.10;;;;;;;7.51;95.32;99041.27;105102;1266;73725;-71
2023/04/03 04:30:39;;;;;;;11.60;9.80;;;;;;;7.50;95.26;99039.81;105216;1270;71543;-74
2023/04/03 04:33:08;;;;;;;13.20;11.00;;;;;;;7.47;95.92;99036.78;105029;1267;73939;-72
2023/04/03 04:35:38;;;;;;;13.70;11.20;;;;;;;7.50;96.14;99038.63;105613;1270;62869;-72
2023/04/03 04:38:08;;;;;;;15.50;11.50;;;;;;;7.55;96.08;99038.44;105596;1257;60771;-74
2023/04/03 04:40:37;;;;;;;15.60;10.30;;;;;;;7.55;96.61;99038.01;105701;1261;72216;-71
2023/04/03 04:43:06;;;;;;;12.10;9.90;;;;;;;7.61;96.59;99043.88;105592;1257;71552;-71
2023/04/03 04:45:35;;;;;;;15.90;11.60;;;;;;;7.65;95.85;99040.19;105683;1258;73036;-72
2023/04/03 04:48:04;;;;;;;11.20;9.70;;;;;;;7.65;96.31;99041.00;105475;1257;59583;-71
2023/04/03 04:50:35;;;;;;;15.30;10.60;;;;;;;7.69;96.06;99039.22;105810;1257;61296;-74
2023/04/03 04:53:04;;;;;;;11.30;10.00;;;;;;;7.70;95.85;99037.79;105779;1258;73502;-72
2023/04/03 04:55:32;;;;;;;12.50;10.10;;;;;;;7.66;95.78;99039.12;105535;1257;71073;-73
2023/04/03 04:58:01;;;;;;;11.70;9.50;;;;;;;7.68;96.20;99041.92;105590;1257;73806;-72
2023/04/03 05:00:32;;;;;;;12.50;9.70;;;;;;;7.70;95.67;99040.86;105481;1264;60369;-71
2023/04/03 05:03:01;;;;;;;11.80;10.50;;;;;;;7.65;95.78;99038.85;105490;1258;60499;-73
2023/04/03 05:05:30;;;;;;;12.70;10.70;;;;;;;7.61;95.76;99044.79;105449;1263;73030;-71
2023/04/03 05:07:59;;;;;;;13.60;11.10;;;;;;;7.59;95.68;99042.94;105656;1257;71286;-74
2023/04/03 05:10:28;;;;;;;12.90;11.10;;;;;;;7.55;95.66;99045.77;105567;1257;74441;-72
2023/04/03 05:12:57;;;;;;;11.60;10.30;;;;;;;7.55;96.04;99047.40;105543;1257;61151;-73
2023/04/03 05:15:26;;;;;;;9.90;8.80;;;;;;;7.53;96.12;99046.23;105601;1261;59869;-73
2023/04/03 05:17:56;;;;;;;11.50;9.40;;;;;;;7.56;96.53;99049.77;105699;1260;73596;-72
2023/04/03 05:20:25;;;;;;;11.50;9.90;;;;;;;7.60;96.64;99050.55;105527;1257;70491;-75
2023/04/03 05:22:53;;;;;;;14.20;11.00;;;;;;;7.64;96.38;99050.59;105538;1261;71112;-71
2023/04/03 05:25:21;;;;;;;15.10;12.00;;;;;;;7.70;96.80;99049.63;105272;1260;60404;-73
2023/04/03 05:27:50;;;;;;;14.30;11.30;;;;;;;7.72;96.66;99052.30;105542;1262;61597;-74
2023/04/03 05:30:18;;;;;;;12.20;10.50;;;;;;;7.75;96.77;99049.52;105415;1264;75711;-74
2023/04/03 05:32:47;;;;;;;12.70;10.70;;;;;;;7.74;97.11;99054.70;105531;1257;71581;-72
2023/04/03 05:35:23;;;;;;;13.40;11.50;;;;;;;7.78;97.21;99054.78;105619;1260;71015;-71
2023/04/03 05:37:52;;;;;;;12.60;10.70;;;;;;;7.79;96.97;99054.51;105460;1261;61446;-73
2023/04/03 05:40:21;;;;;;;11.40;9.80;;;;;;;7.78;96.31;99058.14;105531;1257;60337;-71
2023/04/03 05:42:53;;;;;;;13.10;10.40;;;;;;;7.79;96.84;99062.77;105673;1259;74253;-70
2023/04/03 05:45:22;;;;;;;11.90;10.30;;;;;;;7.81;96.97;99062.09;105624;1256;72218;-71
2023/04/03 05:47:50;;;;;;;13.00;10.40;;;;;;;7.83;96.90;99059.79;105765;1257;72189;-74
2023/04/03 05:50:18;;;;;;;11.40;10.10;;;;;;;7.83;96.70;99060.55;105475;1264;61400;-71
2023/04/03 05:52:51;;;;;;;14.00;11.30;;;;;;;7.87;96.87;99062.20;105549;1257;61378;-73
2023/04/03 05:55:19;;;;;;;13.50;10.80;;;;;;;7.84;96.12;99064.32;105516;1262;72959;-70
2023/04/03 05:57:48;;;;;;;12.90;11.60;;;;;;;7.83;96.59;99066.17;105594;1260;68399;-70
2023/04/03 06:00:17;;;;;;;11.80;10.50;;;;;;;7.86;96.90;99068.52;105681;1258;72661;-71
2023/04/03 06:02:50;;;;;;;12.00;10.10;;;;;;;7.91;97.16;99072.22;105355;1261;59708;-72
2023/04/03 06:05:22;;;;;;;11.80;9.50;;;;;;;7.93;97.35;99072.18;105622;1257;59394;-72
2023/04/03 06:07:50;;;;;;;13.10;10.60;;;;;;;7.95;97.56;99073.23;105530;1258;71817;-70
2023/04/03 06:10:19;;;;;;;13.80;10.50;;;;;;;7.98;97.34;99072.33;105606;1257;70316;-70
2023/04/03 06:12:50;;;;;;;10.70;9.60;;;;;;;8.01;97.52;99079.41;105463;1256;73143;-75
2023/04/03 06:15:18;;;;;;;10.60;9.50;;;;;;;8.01;97.13;99073.71;105484;1257;59662;-72
2023/04/03 06:17:48;;;;;;;13.40;9.40;;;;;;;8.03;96.67;99079.40;105728;1257;61299;-73
2023/04/03 06:20:17;;;;;;;10.20;8.90;;;;;;;8.01;96.44;99079.39;105514;1258;74591;-71
2023/04/03 06:22:45;;;;;;;10.90;9.40;;;;;;;7.98;95.97;99082.09;105238;1263;68923;-70
2023/04/03 06:25:16;;;;;;;16.10;9.90;;;;;;;7.92;95.76;99087.63;105510;1257;71364;-73
2023/04/03 06:27:45;;;;;;;11.50;9.30;;;;;;;7.87;95.63;99092.02;105627;1257;60130;-70
2023/04/03 06:30:13;;;;;;;15.00;10.60;;;;;;;7.86;96.86;99090.90;105547;1257;60317;-72
2023/04/03 06:32:42;;;;;;;10.40;9.10;;;;;;;7.87;97.20;99092.59;105582;1257;73775;-70
2023/04/03 06:35:11;;;;;;;11.90;9.30;;;;;;;7.92;97.13;99094.92;105515;1257;70977;-73
2023/04/03 06:37:40;;;;;;;11.20;9.40;;;;;;;7.95;97.48;99093.70;105644;1260;74006;-72
2023/04/03 06:40:15;;;;;;;13.90;9.90;;;;;;;7.93;97.97;99099.39;105559;1258;61073;-74
2023/04/03 06:42:44;;;;;;;11.00;9.90;;;;;;;7.96;97.63;99102.39;105746;1257;61314;-74
2023/04/03 06:45:13;;;;;;;12.00;10.20;;;;;;;7.96;97.64;99100.20;105490;1257;73682;-74
2023/04/03 06:47:45;;;;;;;10.90;9.20;;;;;;;7.95;98.15;99104.11;105639;1267;70834;-73
2023/04/03 06:50:14;;;;;;;10.30;9.20;;;;;;;8.00;98.13;99106.08;105497;1257;72833;-72
2023/04/03 06:52:44;;;;;;;10.00;8.70;;;;;;;8.06;98.01;99102.84;105535;1261;60390;-72
2023/04/03 06:55:12;;;;;;;9.70;8.50;;;;;;;8.14;97.94;99102.08;105561;1257;60549;-72
2023/04/03 06:57:41;;;;;;;10.50;9.10;;;;;;;8.14;97.38;99106.41;105691;1260;74247;-74
2023/04/03 07:00:10;;;;;;;10.40;9.30;;;;;;;8.13;97.22;99104.46;105483;1257;71357;-72
2023/04/03 07:02:39;;;;;;;10.20;9.10;;;;;;;8.13;97.33;99104.95;105450;1257;71818;-73
2023/04/03 07:05:08;;;;;;;11.70;8.80;;;;;;;8.17;97.33;99110.10;105716;1260;61476;-73
2023/04/03 07:07:37;;;;;;;10.20;8.90;;;;;;;8.18;97.68;99107.56;105501;1257;59740;-71
2023/04/03 07:10:06;;;;;;;13.40;9.00;;;;;;;8.21;98.12;99116.19;105542;1260;71770;-72
2023/04/03 07:12:35;;;;;;;12.90;10.60;;;;;;;8.25;97.61;99115.87;105514;1257;70853;-73
2023/04/03 07:15:05;;;;;;;12.70;10.00;;;;;;;8.25;96.79;99113.66;105794;1257;72856;-73
2023/04/03 07:17:34;;;;;;;11.80;10.50;;;;;;;8.26;97.10;99117.26;105412;1257;60595;-74
2023/04/03 07:20:03;;;;;;;9.60;8.60;;;;;;;8.30;96.89;99117.15;105659;1260;61145;-73
2023/04/03 07:22:35;;;;;;;11.10;9.20;;;;;;;8.33;96.40;99120.16;105532;1257;74086;-72
2023/04/03 07:25:06;;;;;;;11.30;9.70;;;;;;;8.33;96.48;99120.02;105575;1257;70587;-74
2023/04/03 07:27:35;;;;;;;11.10;9.30;;;;;;;8.31;96.63;99118.28;105482;1258;74641;-72
2023/04/03 07:30:03;;;;;;;12.00;9.30;;;;;;;8.35;96.89;99119.29;105271;1257;61604;-71
2023/04/03 07:32:35;;;;;;;9.20;8.30;;;;;;;8.37;96.82;99117.80;105591;1257;61135;-73
2023/04/03 07:35:03;;;;;;;9.80;8.80;;;;;;;8.39;96.60;99124.15;105528;1260;74201;-74
2023/04/03 07:37:32;;;;;;;10.50;8.70;;;;;;;8.39;96.69;99122.17;105532;1259;70450;-73
2023/04/03 07:40:03;;;;;;;10.60;9.40;;;;;;;8.37;96.64;99123.42;105615;1257;73007;-74
2023/04/03 07:42:32;;;;;;;11.20;10.10;;;;;;;8.36;95.85;99124.77;105677;1257;61178;-74
2023/04/03 07:45:01;;;;;;;10.80;9.10;;;;;;;8.35;95.74;99124.88;105681;1257;60663;-73
2023/04/03 07:47:31;;;;;;;12.40;11.10;;;;;;;8.33;95.64;99128.90;105623;1260;73985;-73
2023/04/03 07:50:00;;;;;;;16.90;11.70;;;;;;;8.29;95.85;99125.36;105514;1257;71259;-74
2023/04/03 07:52:30;;;;;;;12.10;10.80;;;;;;;8.33;96.07;99127.31;105518;1257;73218;-75
2023/04/03 07:54:59;;;;;;;15.30;11.30;;;;;;;8.35;96.37;99130.35;105721;1257;61066;-74
2023/04/03 07:57:27;;;;;;;13.80;10.40;;;;;;;8.39;96.57;99132.09;105749;1255;60581;-75
2023/04/03 07:59:56;;;;;;;14.30;11.10;;;;;;;8.47;96.71;99132.98;105612;1262;72046;-75
2023/04/03 08:02:25;;;;;;;12.90;9.90;;;;;;;8.56;96.84;99132.88;105603;1256;68986;-74
2023/04/03 08:04:53;;;;;;;12.50;9.90;;;;;;;8.66;96.82;99132.82;105638;1260;72678;-76
2023/04/03 08:07:21;;;;;;;12.10;9.70;;;;;;;8.73;96.95;99135.97;105474;1257;60553;-74
2023/04/03 08:09:51;;;;;;;12.40;10.80;;;;;;;8.75;96.55;99135.73;105557;1257;60562;-75
2023/04/03 08:12:19;;;;;;;11.80;10.30;;;;;;;8.77;96.28;99136.02;105358;1257;75016;-75
2023/04/03 08:14:48;;;;;;;12.80;10.00;;;;;;;8.80;96.36;99140.64;105504;1257;68327;-74
2023/04/03 08:17:18;;;;;;;13.50;10.40;;;;;;;8.81;95.77;99139.85;105356;1257;73914;-74
2023/04/03 08:19:46;;;;;;;15.50;11.30;;;;;;;8.85;96.21;99145.06;105533;1257;61570;-73
2023/04/03 08:22:15;;;;;;;14.40;12.00;;;;;;;8.88;96.39;99146.02;105620;1256;61305;-72
2023/04/03 08:24:45;;;;;;;12.40;10.70;;;;;;;8.88;96.58;99148.06;105561;1257;74769;-72
2023/04/03 08:27:26;;;;;;;10.60;9.50;;;;;;;8.95;96.44;99149.91;105586;1262;70099;-75
2023/04/03 08:29:56;;;;;;;15.10;10.20;;;;;;;9.02;96.74;99149.83;105561;1257;73901;-71
2023/04/03 08:32:25;;;;;;;11.50;9.80;;;;;;;9.08;96.00;99150.00;105563;1257;61386;-72
2023/04/03 08:34:54;;;;;;;12.50;9.70;;;;;;;9.12;95.70;99152.73;105603;1260;61257;-73
2023/04/03 08:37:26;;;;;;;10.70;9.50;;;;;;;9.14;95.70;99152.52;105704;1258;74198;-74
2023/04/03 08:39:54;;;;;;;9.60;8.20;;;;;;;9.18;95.75;99153.90;105637;1257;71875;-73
2023/04/03 08:42:38;;;;;;;12.30;8.10;;;;;;;9.23;95.22;99155.89;105746;1257;72063;-75
2023/04/03 08:45:15;;;;;;;9.60;8.60;;;;;;;9.27;94.61;99161.04;105623;1257;62952;-73
2023/04/03 08:47:51;;;;;;;9.00;8.00;;;;;;;9.29;94.35;99158.64;105589;1257;61440;-72
2023/04/03 08:50:28;;;;;;;9.70;7.90;;;;;;;9.30;94.54;99161.42;105280;1257;73886;-72
2023/04/03 08:52:57;;;;;;;9.60;8.40;;;;;;;9.31;94.91;99163.20;105478;1259;70442;-73
2023/04/03 08:55:45;;;;;;;8.00;7.30;;;;;;;9.33;94.38;99163.70;105773;1260;70377;-74
2023/04/03 08:58:18;;;;;;;11.90;9.00;;;;;;;9.31;93.62;99163.52;105444;1257;61503;-73
2023/04/03 09:00:46;;;;;;;11.40;9.00;;;;;;;9.35;93.61;99165.00;105521;1262;60428;-74
2023/04/03 09:03:17;;;;;;;10.50;8.70;;;;;;;9.37;92.22;99162.91;105517;1257;74067;-73
2023/04/03 09:06:05;;;;;;;9.90;7.80;;;;;;;9.39;92.60;99166.57;105592;1257;70110;-73
2023/04/03 09:09:04;;;;;;;10.60;8.70;;;;;;;9.43;92.63;99165.31;105496;1257;73689;-72
2023/04/03 09:11:48;;;;;;;10.30;7.90;;;;;;;9.47;93.01;99167.92;105458;1256;62283;-75
2023/04/03 09:14:54;;;;;;;9.90;8.70;;;;;;;9.52;92.99;99170.00;105550;1262;61749;-74
2023/04/03 09:17:51;;;;;;;11.60;8.70;;;;;;;9.52;92.21;99165.20;105629;1260;74544;-72
2023/04/03 09:20:44;;;;;;;9.40;8.50;;;;;;;9.51;92.22;99165.99;105469;1254;69706;-73
2023/04/03 09:23:32;;;;;;;10.00;8.10;;;;;;;9.56;92.59;99166.29;105643;1254;73908;-74
2023/04/03 09:26:04;;;;;;;11.60;9.50;;;;;;;9.61;92.85;99172.07;105473;1257;61481;-73
2023/04/03 09:28:37;;;;;;;9.90;8.40;;;;;;;9.71;92.51;99174.06;105776;1255;61615;-73
2023/04/03 09:31:22;;;;;;;11.30;8.70;;;;;;;9.82;92.60;99171.13;105536;1254;74613;-71
2023/04/03 09:33:54;;;;;;;10.60;9.40;;;;;;;9.91;91.71;99172.02;105719;1254;71600;-72
2023/04/03 09:36:41;;;;;;;11.00;9.90;;;;;;;9.95;91.34;99173.76;105453;1256;73855;-74
2023/04/03 09:39:13;;;;;;;10.60;9.40;;;;;;;9.97;91.47;99174.52;105632;1259;60612;-74
2023/04/03 09:41:42;;;;;;;10.10;9.10;;;;;;;10.02;91.79;99178.01;105531;1257;60584;-75
2023/04/03 09:44:21;;;;;;;10.40;9.00;;;;;;;10.10;92.13;99178.05;105971;1254;73073;-72
2023/04/03 09:46:49;;;;;;;11.70;9.70;;;;;;;10.13;91.80;99182.58;105856;1254;71621;-73
2023/04/03 09:49:17;;;;;;;11.30;9.20;;;;;;;10.21;92.01;99181.66;105801;1254;74138;-72
2023/04/03 09:51:45;;;;;;;12.00;9.50;;;;;;;10.32;92.50;99182.31;105724;1256;60415;-73
2023/04/03 09:54:37;;;;;;;10.20;8.60;;;;;;;10.38;91.41;99184.52;105641;1256;60543;-73
2023/04/03 09:57:08;;;;;;;14.00;8.20;;;;;;;10.43;90.74;99183.02;105789;1256;74800;-74
2023/04/03 09:59:41;;;;;;;10.20;8.50;;;;;;;10.44;89.89;99186.46;105712;1257;70046;-72
2023/04/03 10:02:12;;;;;;;9.90;8.20;;;;;;;10.49;90.11;99186.83;105771;1254;72582;-72
2023/04/03 10:04:41;;;;;;;9.90;8.00;;;;;;;10.60;91.29;99188.66;105779;1254;60513;-74
2023/04/03 10:07:29;;;;;;;10.30;8.50;;;;;;;10.67;90.67;99189.41;105748;1255;61874;-74
2023/04/03 10:10:03;;;;;;;8.80;7.90;;;;;;;10.77;90.92;99188.95;105677;1255;72889;-75
2023/04/03 10:12:32;;;;;;;9.70;7.60;;;;;;;10.91;90.87;99192.09;105718;1257;70399;-74
2023/04/03 10:15:00;;;;;;;8.30;7.10;;;;;;;11.00;89.73;99189.67;105850;1256;72089;-73
2023/04/03 10:17:51;;;;;;;8.70;7.50;;;;;;;11.02;90.11;99192.73;105851;1254;60581;-73
2023/04/03 10:20:23;;;;;;;8.30;7.00;;;;;;;10.95;90.19;99189.73;105874;1254;61313;-74
2023/04/03 10:23:17;;;;;;;9.40;7.60;;;;;;;10.96;89.26;99192.81;105823;1254;72810;-75
2023/04/03 10:25:55;;;;;;;8.30;7.00;;;;;;;10.90;88.18;99201.69;105919;1254;71659;-73
2023/04/03 10:28:45;;;;;;;8.90;7.40;;;;;;;10.75;87.38;99200.45;105789;1254;72729;-73
2023/04/03 10:31:39;;;;;;;9.00;7.30;;;;;;;10.65;87.10;99210.33;105738;1259;60425;-76
2023/04/03 10:34:47;;;;;;;8.70;6.50;;;;;;;10.51;86.82;99213.74;105609;1259;60323;-74
2023/04/03 10:38:10;;;;;;;8.20;6.00;;;;;;;10.32;86.46;99219.39;105722;1256;74816;-74
2023/04/03 10:41:00;;;;;;;8.60;7.00;;;;;;;10.14;86.76;99220.58;105835;1257;70466;-75
2023/04/03 10:43:34;;;;;;;7.60;6.70;;;;;;;10.02;86.94;99221.20;105646;1259;72595;-73
2023/04/03 10:46:09;;;;;;;7.80;6.50;;;;;;;9.99;87.54;99223.19;105797;1254;61480;-71
2023/04/03 10:48:47;;;;;;;7.80;7.00;;;;;;;9.97;88.05;99223.02;105660;1257;61081;-72
2023/04/03 10:51:37;;;;;;;7.70;6.60;;;;;;;9.87;88.02;99224.91;105658;1256;74246;-75
2023/04/03 10:54:09;;;;;;;8.10;7.30;;;;;;;9.84;88.63;99224.17;105758;1254;69913;-72
2023/04/03 10:57:00;;;;;;;9.40;8.00;;;;;;;9.85;88.34;99224.19;105556;1254;71874;-73
2023/04/03 10:59:47;;;;;;;8.40;7.40;;;;;;;9.78;88.24;99223.05;105852;1254;60504;-75
2023/04/03 11:02:40;;;;;;;8.90;7.30;;;;;;;9.76;88.28;99225.66;105905;1254;61050;-73
2023/04/03 11:05:19;;;;;;;10.00;7.80;;;;;;;9.77;88.60;99227.80;105823;1254;74078;-73
2023/04/03 11:07:50;;;;;;;11.60;8.10;;;;;;;9.80;89.32;99229.04;105905;1254;70593;-73
2023/04/03 11:10:26;;;;;;;9.40;8.40;;;;;;;9.85;89.62;99231.10;105888;1254;73550;-72
2023/04/03 11:13:01;;;;;;;8.60;7.70;;;;;;;9.92;89.13;99231.38;107195;1254;61385;-73
2023/04/03 11:15:30;;;;;;;10.50;8.50;;;;;;;9.92;89.21;99229.55;106084;1254;60386;-73
2023/04/03 11:18:06;;;;;;;12.80;8.20;;;;;;;9.90;89.87;99228.11;106932;1259;74664;-73
2023/04/03 11:20:47;;;;;;;10.10;8.80;;;;;;;9.92;89.71;99227.49;106112;1254;69945;-73
2023/04/03 11:23:21;;;;;;;;;;;;;;;9.96;89.41;99229.62;106161;1257;72942;-74
2023/04/03 11:25:52;;;;;;;11.50;7.80;;;;;;;9.92;89.39;99231.02;106648;1254;63236;-74
2023/04/03 11:28:20;;;;;;;9.00;8.10;;;;;;;9.87;88.74;99231.25;106877;1254;60322;-74
2023/04/03 11:31:17;;;;;;;9.60;8.60;;;;;;;9.76;88.60;99230.52;106699;1259;73823;-75
2023/04/03 11:34:03;;;;;;;7.30;6.50;;;;;;;9.65;88.38;99232.17;106332;1254;70622;-74
2023/04/03 11:36:43;;;;;;;;;;;;;;;9.59;88.78;99232.08;106502;1259;73017;-74
2023/04/03 11:39:22;;;;;;;8.50;7.20;;;;;;;9.47;88.88;99238.21;106505;1254;61306;-74
2023/04/03 11:41:51;;;;;;;9.10;7.70;;;;;;;9.44;89.35;99241.11;106571;1254;60881;-74
2023/04/03 11:44:38;;;;;;;7.40;6.10;;;;;;;9.39;90.27;99242.44;106398;1254;73660;-72
2023/04/03 11:47:51;;;;;;;10.30;7.60;;;;;;;9.38;89.99;99245.11;106620;1254;71268;-72
2023/04/03 11:50:42;;;;;;;8.60;6.10;;;;;;;9.38;89.12;99249.68;106580;1260;72860;-72
2023/04/03 11:53:13;;;;;;;6.20;5.60;;;;;;;9.28;89.89;99252.97;106861;1255;60528;-74